createdAt,value
2022-12-09T00:01:03.645Z,30.08
2022-12-09T00:03:30.867Z,24.08
2022-12-09T00:05:57.724Z,19.55
2022-12-09T00:08:24.600Z,18.38
2022-12-09T00:10:51.370Z,23.58
2022-12-09T00:13:18.205Z,24.23
2022-12-09T00:15:44.929Z,23.27
2022-12-09T00:18:11.587Z,21.58
2022-12-09T00:20:38.202Z,19.70
2022-12-09T00:23:06.080Z,18.92
2022-12-09T00:25:32.763Z,30.58
2022-12-09T00:27:59.373Z,22.45
2022-12-09T00:30:26.260Z,19.67
2022-12-09T00:32:53.110Z,30.23
2022-12-09T00:35:19.968Z,23.80
2022-12-09T00:37:46.639Z,21.48
2022-12-09T00:40:14.037Z,28.73
2022-12-09T00:42:40.881Z,23.25
2022-12-09T00:45:08.518Z,27.73
2022-12-09T00:47:35.690Z,19.30
2022-12-09T00:50:03.034Z,21.27
2022-12-09T00:52:29.892Z,28.80
2022-12-09T00:54:56.862Z,19.73
2022-12-09T00:57:23.743Z,23.33
2022-12-09T00:59:50.390Z,21.55
2022-12-09T01:02:17.172Z,22.13
2022-12-09T01:04:44.145Z,25.83
2022-12-09T01:07:11.016Z,28.15
2022-12-09T01:09:37.796Z,24.23
2022-12-09T01:12:04.756Z,22.42
2022-12-09T01:14:31.563Z,28.10
2022-12-09T01:16:58.217Z,21.30
2022-12-09T01:19:24.837Z,24.70
2022-12-09T01:21:55.496Z,23.40
2022-12-09T01:24:22.843Z,26.55
2022-12-09T01:26:49.631Z,21.40
2022-12-09T01:29:16.408Z,22.13
2022-12-09T01:31:43.661Z,22.75
2022-12-09T01:34:10.697Z,28.08
2022-12-09T01:36:37.518Z,21.88
2022-12-09T01:39:04.298Z,24.63
2022-12-09T01:41:30.928Z,25.27
2022-12-09T01:44:16.179Z,20.20
2022-12-09T01:46:43.630Z,18.27
2022-12-09T01:49:16.038Z,19.15
2022-12-09T01:51:45.678Z,23.02
2022-12-09T01:54:12.580Z,18.45
2022-12-09T01:56:40.346Z,24.77
2022-12-09T01:59:11.155Z,18.67
2022-12-09T02:01:39.029Z,19.25
2022-12-09T02:04:06.995Z,21.38
2022-12-09T02:06:37.049Z,18.52
2022-12-09T02:09:04.578Z,21.52
2022-12-09T02:11:53.311Z,17.73
2022-12-09T02:14:42.062Z,29.70
2022-12-09T02:17:23.836Z,19.67
2022-12-09T02:20:01.727Z,20.38
2022-12-09T02:22:45.284Z,20.15
2022-12-09T02:25:14.975Z,22.13
2022-12-09T02:28:12.369Z,20.88
2022-12-09T02:30:54.987Z,21.30
2022-12-09T02:33:36.467Z,19.05
2022-12-09T02:36:09.429Z,20.20
2022-12-09T02:38:39.350Z,29.02
2022-12-09T02:41:24.957Z,20.95
2022-12-09T02:44:00.399Z,18.52
2022-12-09T02:46:28.640Z,24.80
2022-12-09T02:48:58.528Z,20.65
2022-12-09T02:51:29.297Z,18.10
2022-12-09T02:54:03.910Z,25.95
2022-12-09T02:56:32.370Z,22.42
2022-12-09T02:58:59.169Z,22.85
2022-12-09T03:02:12.544Z,15.20
2022-12-09T03:04:44.410Z,25.13
2022-12-09T03:07:25.317Z,20.55
2022-12-09T03:10:01.661Z,17.85
2022-12-09T03:12:32.674Z,22.92
2022-12-09T03:15:03.953Z,25.10
2022-12-09T03:17:39.174Z,18.58
2022-12-09T03:20:14.312Z,21.63
2022-12-09T03:22:43.375Z,34.15
2022-12-09T03:25:14.025Z,21.83
2022-12-09T03:27:49.921Z,23.95
2022-12-09T03:30:17.521Z,17.30
2022-12-09T03:32:46.221Z,17.73
2022-12-09T03:35:39.594Z,22.67
2022-12-09T03:38:11.001Z,15.90
2022-12-09T03:40:38.897Z,20.13
2022-12-09T03:43:20.934Z,22.42
2022-12-09T03:45:47.993Z,19.80
2022-12-09T03:48:15.542Z,17.63
2022-12-09T03:50:52.908Z,25.25
2022-12-09T03:53:25.622Z,15.82
2022-12-09T03:55:59.344Z,23.30
2022-12-09T03:58:32.124Z,19.08
2022-12-09T04:00:59.146Z,23.25
2022-12-09T04:03:26.636Z,23.25
2022-12-09T04:05:53.645Z,33.45
2022-12-09T04:08:20.660Z,32.70
2022-12-09T04:10:47.582Z,26.38
2022-12-09T04:13:14.373Z,20.48
2022-12-09T04:15:41.175Z,26.80
2022-12-09T04:18:08.070Z,19.13
2022-12-09T04:20:34.827Z,24.20
2022-12-09T04:23:01.481Z,22.00
2022-12-09T04:25:28.506Z,18.25
2022-12-09T04:27:55.185Z,20.85
2022-12-09T04:30:21.986Z,24.45
2022-12-09T04:32:48.843Z,23.17
2022-12-09T04:35:16.267Z,23.38
2022-12-09T04:37:43.259Z,20.40
2022-12-09T04:40:10.680Z,20.48
2022-12-09T04:42:37.852Z,23.65
2022-12-09T04:45:04.830Z,22.35
2022-12-09T04:47:33.840Z,23.75
2022-12-09T04:50:00.770Z,17.45
2022-12-09T04:52:27.621Z,27.25
2022-12-09T04:54:54.705Z,20.17
2022-12-09T04:57:21.577Z,25.58
2022-12-09T04:59:48.438Z,21.80
2022-12-09T05:02:15.168Z,18.75
2022-12-09T05:04:42.940Z,17.70
2022-12-09T05:07:11.714Z,14.02
2022-12-09T05:09:38.606Z,21.15
2022-12-09T05:12:06.410Z,26.25
2022-12-09T05:14:33.386Z,26.17
2022-12-09T05:17:00.113Z,21.15
2022-12-09T05:19:27.154Z,16.95
2022-12-09T05:21:54.087Z,18.02
2022-12-09T05:24:20.752Z,25.25
2022-12-09T05:26:47.404Z,19.38
2022-12-09T05:29:19.294Z,21.45
2022-12-09T05:31:51.486Z,26.58
2022-12-09T05:34:19.006Z,18.05
2022-12-09T05:36:46.127Z,29.15
2022-12-09T05:39:12.930Z,27.67
2022-12-09T05:41:39.664Z,23.20
2022-12-09T05:44:06.476Z,30.63
2022-12-09T05:46:33.701Z,28.52
2022-12-09T05:49:01.098Z,27.98
2022-12-09T05:51:30.017Z,19.42
2022-12-09T05:54:01.251Z,20.33
2022-12-09T05:56:28.467Z,26.43
2022-12-09T05:58:55.805Z,19.05
2022-12-09T06:01:24.318Z,24.35
2022-12-09T06:03:52.970Z,26.35
2022-12-09T06:06:22.995Z,24.08
2022-12-09T06:08:50.183Z,25.05
2022-12-09T06:11:22.183Z,29.27
2022-12-09T06:16:19.722Z,27.45
2022-12-09T06:18:47.588Z,24.35
2022-12-09T06:21:15.787Z,22.48
2022-12-09T06:23:43.542Z,24.38
2022-12-09T06:26:20.300Z,20.60
2022-12-09T06:28:47.597Z,21.63
2022-12-09T06:31:14.940Z,21.48
2022-12-09T06:33:59.139Z,16.77
2022-12-09T06:36:29.188Z,23.17
2022-12-09T06:38:57.564Z,22.67
2022-12-09T06:41:25.330Z,20.98
2022-12-09T06:43:52.184Z,20.13
2022-12-09T06:46:24.644Z,21.05
2022-12-09T06:48:53.211Z,30.75
2022-12-09T06:51:21.543Z,23.70
2022-12-09T06:53:48.356Z,21.13
2022-12-09T06:56:16.232Z,22.38
2022-12-09T06:58:45.129Z,25.90
2022-12-09T07:01:25.160Z,23.77
2022-12-09T07:03:55.656Z,31.50
2022-12-09T07:06:41.740Z,23.15
2022-12-09T07:09:10.608Z,27.02
2022-12-09T07:11:37.852Z,30.23
2022-12-09T07:14:05.300Z,19.88
2022-12-09T07:16:32.727Z,21.33
2022-12-09T07:18:59.687Z,18.83
2022-12-09T07:21:27.617Z,25.95
2022-12-09T07:23:54.702Z,21.33
2022-12-09T07:26:22.155Z,24.25
2022-12-09T07:28:50.408Z,44.00
2022-12-09T07:31:21.622Z,26.40
2022-12-09T07:33:50.034Z,20.73
2022-12-09T07:36:20.943Z,24.27
2022-12-09T07:38:48.938Z,21.30
2022-12-09T07:41:18.550Z,23.58
2022-12-09T07:43:46.162Z,28.63
2022-12-09T07:46:15.718Z,27.75
2022-12-09T07:48:43.394Z,23.73
2022-12-09T07:51:10.864Z,29.65
2022-12-09T07:53:38.630Z,29.48
2022-12-09T07:56:08.586Z,24.63
2022-12-09T07:58:35.727Z,24.67
2022-12-09T08:01:10.340Z,31.25
2022-12-09T08:03:37.463Z,34.83
2022-12-09T08:06:04.936Z,33.38
2022-12-09T08:08:32.941Z,22.00
2022-12-09T08:11:14.924Z,24.23
2022-12-09T08:16:11.594Z,29.30
2022-12-09T08:18:39.117Z,28.15
2022-12-09T08:21:08.390Z,27.90
2022-12-09T08:23:35.714Z,23.38
2022-12-09T08:26:03.144Z,29.50
2022-12-09T08:28:30.680Z,31.58
2022-12-09T08:30:58.414Z,28.50
2022-12-09T08:33:26.294Z,26.52
2022-12-09T08:35:53.545Z,25.30
2022-12-09T08:38:20.445Z,37.00
2022-12-09T08:40:47.544Z,24.80
2022-12-09T08:43:14.662Z,28.65
2022-12-09T08:45:41.918Z,28.83
2022-12-09T08:48:09.598Z,25.98
2022-12-09T08:50:36.876Z,26.17
2022-12-09T08:53:03.879Z,23.63
2022-12-09T08:55:30.710Z,21.30
2022-12-09T08:57:58.120Z,28.00
2022-12-09T09:00:25.067Z,23.73
2022-12-09T09:02:52.176Z,33.67
2022-12-09T09:05:19.104Z,27.45
2022-12-09T09:07:46.750Z,25.70
2022-12-09T09:10:14.309Z,30.70
2022-12-09T09:12:43.880Z,26.33
2022-12-09T09:15:11.814Z,29.92
2022-12-09T09:17:38.929Z,34.03
2022-12-09T09:20:07.917Z,25.65
2022-12-09T09:22:35.313Z,29.83
2022-12-09T09:25:02.389Z,23.08
2022-12-09T09:27:29.233Z,28.55
2022-12-09T09:29:56.293Z,18.75
2022-12-09T09:32:23.267Z,32.13
2022-12-09T09:34:50.716Z,23.05
2022-12-09T09:37:17.720Z,23.58
2022-12-09T09:39:44.778Z,22.88
2022-12-09T09:42:23.451Z,22.20
2022-12-09T09:44:53.538Z,25.30
2022-12-09T09:47:38.109Z,33.70
2022-12-09T09:50:33.852Z,37.50
2022-12-09T09:53:10.406Z,30.58
2022-12-09T09:55:44.689Z,32.55
2022-12-09T09:58:45.774Z,30.45
2022-12-09T10:01:18.874Z,21.90
2022-12-09T10:04:13.987Z,26.45
2022-12-09T10:06:51.934Z,28.08
2022-12-09T10:09:32.172Z,22.88
2022-12-09T10:12:07.549Z,24.88
2022-12-09T10:15:17.086Z,27.10
2022-12-09T10:18:18.321Z,30.40
2022-12-09T10:20:45.974Z,22.65
2022-12-09T10:23:15.508Z,30.58
2022-12-09T10:25:47.339Z,21.80
2022-12-09T10:28:26.305Z,30.65
2022-12-09T10:30:55.407Z,24.83
2022-12-09T10:33:30.703Z,21.92
2022-12-09T10:35:57.663Z,22.35
2022-12-09T10:38:25.515Z,36.72
2022-12-09T10:41:08.134Z,19.77
2022-12-09T10:43:37.746Z,29.85
2022-12-09T10:46:23.196Z,28.35
2022-12-09T10:48:50.548Z,22.23
2022-12-09T10:51:38.988Z,25.83
2022-12-09T10:54:15.381Z,33.70
2022-12-09T10:57:08.293Z,21.60
2022-12-09T10:59:36.058Z,34.67
2022-12-09T11:02:08.804Z,26.30
2022-12-09T11:04:36.813Z,30.17
2022-12-09T11:07:07.568Z,29.70
2022-12-09T11:09:37.692Z,29.40
2022-12-09T11:12:07.705Z,24.65
2022-12-09T11:14:38.949Z,22.48
2022-12-09T11:17:16.777Z,27.38
2022-12-09T11:19:47.907Z,31.40
2022-12-09T11:22:23.086Z,25.27
2022-12-09T11:24:54.542Z,21.75
2022-12-09T11:27:31.068Z,33.22
2022-12-09T11:30:29.299Z,26.88
2022-12-09T11:33:06.225Z,24.75
2022-12-09T11:35:51.043Z,25.98
2022-12-09T11:38:41.079Z,22.83
2022-12-09T11:41:39.668Z,26.38
2022-12-09T11:44:15.192Z,21.73
2022-12-09T11:46:42.112Z,26.35
2022-12-09T11:49:17.066Z,27.88
2022-12-09T11:52:00.715Z,23.40
2022-12-09T11:54:57.239Z,22.80
2022-12-09T11:57:58.340Z,25.52
2022-12-09T12:00:29.186Z,19.83
2022-12-09T12:03:03.199Z,24.05
2022-12-09T12:05:33.995Z,31.23
2022-12-09T12:08:06.869Z,29.10
2022-12-09T12:10:41.666Z,23.73
2022-12-09T12:13:26.253Z,30.02
2022-12-09T12:16:07.069Z,27.42
2022-12-09T12:18:48.887Z,26.27
2022-12-09T12:21:19.886Z,27.75
2022-12-09T12:24:11.386Z,23.20
2022-12-09T12:26:58.059Z,23.08
2022-12-09T12:29:38.771Z,34.65
2022-12-09T12:32:12.710Z,23.45
2022-12-09T12:35:06.900Z,25.23
2022-12-09T12:38:23.172Z,20.90
2022-12-09T12:40:52.624Z,24.90
2022-12-09T12:44:15.647Z,26.15
2022-12-09T12:47:06.675Z,22.15
2022-12-09T12:49:52.817Z,20.15
2022-12-09T12:52:47.487Z,27.27
2022-12-09T12:55:23.269Z,22.85
2022-12-09T12:57:52.632Z,26.55
2022-12-09T13:00:21.894Z,26.58
2022-12-09T13:03:25.923Z,25.83
2022-12-09T13:05:56.320Z,23.13
2022-12-09T13:08:27.188Z,23.00
2022-12-09T13:10:57.204Z,26.27
2022-12-09T13:13:27.070Z,21.55
2022-12-09T13:16:01.480Z,26.38
2022-12-09T13:18:37.049Z,24.92
2022-12-09T13:21:07.325Z,30.00
2022-12-09T13:24:03.226Z,23.42
2022-12-09T13:26:52.765Z,25.55
2022-12-09T13:29:42.215Z,29.48
2022-12-09T13:32:12.189Z,30.52
2022-12-09T13:34:40.370Z,30.60
2022-12-09T13:37:34.732Z,22.65
2022-12-09T13:40:02.574Z,26.73
2022-12-09T13:42:47.989Z,22.27
2022-12-09T13:45:25.815Z,20.13
2022-12-09T13:47:53.675Z,23.23
2022-12-09T13:50:43.064Z,19.13
2022-12-09T13:53:33.701Z,18.60
2022-12-09T13:56:03.528Z,23.75
2022-12-09T13:58:37.235Z,20.38
2022-12-09T14:01:26.716Z,17.40
2022-12-09T14:04:02.107Z,19.10
2022-12-09T14:06:31.787Z,16.58
2022-12-09T14:09:12.593Z,20.63
2022-12-09T14:11:51.002Z,19.52
2022-12-09T14:14:23.570Z,19.55
2022-12-09T14:16:57.772Z,18.88
2022-12-09T14:19:24.278Z,17.63
2022-12-09T14:22:19.799Z,21.48
2022-12-09T14:25:19.458Z,20.00
2022-12-09T14:28:14.011Z,20.38
2022-12-09T14:31:04.850Z,16.40
2022-12-09T14:33:36.275Z,19.52
2022-12-09T14:36:25.917Z,17.75
2022-12-09T14:39:16.157Z,20.73
2022-12-09T14:41:59.350Z,18.52
2022-12-09T14:44:42.689Z,19.52
2022-12-09T14:47:24.838Z,17.88
2022-12-09T14:49:53.804Z,22.52
2022-12-09T14:52:32.791Z,19.95
2022-12-09T14:55:04.208Z,21.80
2022-12-09T14:57:38.309Z,21.08
2022-12-09T15:00:06.893Z,17.08
2022-12-09T15:02:33.939Z,21.58
2022-12-09T15:05:02.000Z,18.88
2022-12-09T15:07:31.283Z,22.35
2022-12-09T15:10:07.858Z,22.70
2022-12-09T15:12:36.327Z,26.02
2022-12-09T15:15:23.163Z,28.15
2022-12-09T15:18:04.672Z,26.30
2022-12-09T15:20:41.781Z,28.83
2022-12-09T15:23:17.382Z,36.05
2022-12-09T15:25:56.586Z,30.98
2022-12-09T15:28:26.999Z,32.25
2022-12-09T15:30:58.128Z,28.13
2022-12-09T15:33:25.188Z,30.90
2022-12-09T15:36:03.026Z,33.42
2022-12-09T15:42:00.368Z,32.38
2022-12-09T15:44:30.351Z,33.05
2022-12-09T15:46:57.950Z,33.53
2022-12-09T15:49:32.429Z,42.10
2022-12-09T15:52:02.587Z,29.80
2022-12-09T15:54:39.903Z,29.73
2022-12-09T15:57:08.994Z,29.52
2022-12-09T15:59:39.725Z,38.30
2022-12-09T16:02:10.396Z,33.80
2022-12-09T16:04:42.233Z,32.80
2022-12-09T16:07:14.796Z,36.00
2022-12-09T16:09:41.838Z,38.95
2022-12-09T16:12:25.433Z,42.45
2022-12-09T16:14:51.996Z,52.58
2022-12-09T16:17:27.390Z,37.92
2022-12-09T16:19:54.433Z,34.38
2022-12-09T16:22:29.842Z,40.65
2022-12-09T16:25:15.308Z,55.25
2022-12-09T16:27:49.561Z,59.95
2022-12-09T16:30:19.811Z,62.25
2022-12-09T16:32:57.603Z,61.47
2022-12-09T16:35:27.771Z,56.63
2022-12-09T16:37:57.555Z,52.90
2022-12-09T16:40:24.096Z,40.67
2022-12-09T16:42:55.376Z,44.00
2022-12-09T16:45:22.100Z,35.23
2022-12-09T16:47:54.133Z,30.00
2022-12-09T16:50:22.409Z,39.67
2022-12-09T16:52:49.036Z,39.45
2022-12-09T16:55:22.034Z,37.95
2022-12-09T16:57:49.379Z,28.92
2022-12-09T17:00:17.256Z,39.58
2022-12-09T17:03:03.879Z,34.25
2022-12-09T17:05:30.410Z,37.75
2022-12-09T17:07:57.409Z,41.92
2022-12-09T17:10:24.315Z,48.92
2022-12-09T17:12:50.983Z,46.55
2022-12-09T17:15:20.069Z,40.58
2022-12-09T17:17:48.855Z,34.60
2022-12-09T17:20:16.398Z,30.95
2022-12-09T17:22:43.269Z,32.10
2022-12-09T17:25:10.291Z,34.33
2022-12-09T17:27:37.265Z,40.15
2022-12-09T17:30:04.739Z,45.15
2022-12-09T17:32:31.741Z,39.13
2022-12-09T17:34:58.373Z,36.72
2022-12-09T17:37:24.952Z,38.25
2022-12-09T17:39:56.853Z,38.25
2022-12-09T17:42:33.336Z,35.63
2022-12-09T17:44:59.908Z,44.33
2022-12-09T17:47:27.096Z,36.22
2022-12-09T17:49:53.724Z,33.22
2022-12-09T17:52:20.679Z,39.33
2022-12-09T17:54:47.737Z,34.22
2022-12-09T17:57:14.674Z,32.88
2022-12-09T17:59:41.260Z,35.83
2022-12-09T18:02:10.560Z,38.20
2022-12-09T18:04:37.317Z,42.58
2022-12-09T18:07:03.869Z,38.58
2022-12-09T18:09:30.424Z,35.58
2022-12-09T18:11:56.994Z,47.67
2022-12-09T18:14:25.333Z,39.75
2022-12-09T18:16:52.002Z,41.33
2022-12-09T18:19:20.204Z,34.60
2022-12-09T18:21:46.917Z,39.40
2022-12-09T18:24:13.607Z,32.00
2022-12-09T18:26:42.229Z,31.95
2022-12-09T18:29:10.418Z,33.00
2022-12-09T18:31:37.154Z,29.88
2022-12-09T18:34:03.798Z,33.58
2022-12-09T18:36:30.428Z,30.50
2022-12-09T18:39:00.080Z,32.83
2022-12-09T18:41:30.992Z,28.30
2022-12-09T18:44:00.492Z,36.55
2022-12-09T18:46:29.676Z,35.70
2022-12-09T18:49:08.679Z,35.35
2022-12-09T18:51:36.106Z,32.55
2022-12-09T18:54:03.981Z,36.72
2022-12-09T18:56:30.633Z,39.05
2022-12-09T18:59:06.446Z,32.85
2022-12-09T19:01:38.740Z,37.80
2022-12-09T19:04:05.764Z,30.20
2022-12-09T19:06:37.245Z,35.15
2022-12-09T19:09:07.159Z,45.40
2022-12-09T19:11:36.781Z,33.40
2022-12-09T19:14:05.277Z,34.38
2022-12-09T19:16:32.359Z,36.13
2022-12-09T19:19:03.693Z,36.20
2022-12-09T19:21:34.363Z,27.80
2022-12-09T19:24:01.044Z,33.08
2022-12-09T19:26:31.076Z,35.22
2022-12-09T19:29:00.795Z,30.35
2022-12-09T19:31:38.850Z,37.85
2022-12-09T19:34:12.471Z,31.17
2022-12-09T19:36:39.346Z,36.80
2022-12-09T19:39:08.185Z,35.53
2022-12-09T19:41:36.535Z,33.42
2022-12-09T19:44:04.796Z,35.78
2022-12-09T19:46:32.267Z,43.95
2022-12-09T19:48:59.432Z,33.35
2022-12-09T19:51:27.297Z,49.38
2022-12-09T19:53:58.999Z,56.97
2022-12-09T19:56:26.125Z,34.22
2022-12-09T19:58:53.588Z,41.50
2022-12-09T20:01:21.801Z,39.08
2022-12-09T20:03:51.518Z,32.00
2022-12-09T20:06:20.061Z,30.30
2022-12-09T20:08:47.321Z,33.78
2022-12-09T20:11:24.701Z,39.00
2022-12-09T20:13:52.760Z,43.55
2022-12-09T20:16:22.622Z,33.83
2022-12-09T20:18:50.833Z,45.58
2022-12-09T20:21:19.284Z,35.90
2022-12-09T20:23:46.630Z,39.15
2022-12-09T20:26:15.957Z,54.05
2022-12-09T20:28:44.134Z,39.30
2022-12-09T20:31:13.818Z,42.80
2022-12-09T20:33:41.674Z,42.33
2022-12-09T20:36:17.132Z,47.05
2022-12-09T20:38:48.319Z,44.80
2022-12-09T20:41:15.227Z,37.22
2022-12-09T20:43:43.403Z,42.42
2022-12-09T20:46:13.128Z,52.00
2022-12-09T20:48:40.993Z,45.45
2022-12-09T20:51:12.768Z,46.85
2022-12-09T20:53:41.021Z,42.60
2022-12-09T20:56:08.697Z,51.90
2022-12-09T20:58:36.684Z,41.80
2022-12-09T21:01:09.280Z,32.47
2022-12-09T21:03:36.231Z,39.03
2022-12-09T21:06:04.056Z,47.03
2022-12-09T21:08:32.006Z,38.17
2022-12-09T21:11:07.760Z,42.00
2022-12-09T21:13:39.632Z,43.22
2022-12-09T21:16:15.924Z,45.35
2022-12-09T21:18:43.146Z,46.22
2022-12-09T21:21:10.053Z,51.25
2022-12-09T21:23:37.759Z,51.67
2022-12-09T21:26:13.700Z,54.58
2022-12-09T21:28:41.393Z,51.95
2022-12-09T21:31:10.517Z,51.35
2022-12-09T21:33:38.093Z,55.95
2022-12-09T21:36:10.369Z,44.75
2022-12-09T21:38:37.848Z,40.78
2022-12-09T21:41:06.852Z,51.05
2022-12-09T21:43:34.567Z,50.35
2022-12-09T21:46:02.855Z,46.97
2022-12-09T21:48:29.651Z,41.70
2022-12-09T21:50:57.819Z,42.83
2022-12-09T21:53:24.564Z,43.10
2022-12-09T21:55:51.611Z,47.38
2022-12-09T21:58:18.632Z,61.03
2022-12-09T22:00:45.258Z,39.92
2022-12-09T22:03:11.955Z,54.67
2022-12-09T22:05:38.720Z,39.50
2022-12-09T22:08:05.706Z,43.70
2022-12-09T22:10:36.592Z,40.55
2022-12-09T22:13:03.488Z,45.30
2022-12-09T22:15:30.906Z,41.75
2022-12-09T22:17:57.614Z,49.17
2022-12-09T22:21:00.772Z,42.55
2022-12-09T22:23:11.169Z,42.08
2022-12-09T22:25:39.075Z,48.03
2022-12-09T22:28:05.756Z,53.65
2022-12-09T22:30:36.057Z,51.20
2022-12-09T22:33:03.113Z,51.20
2022-12-09T22:35:29.940Z,54.47
2022-12-09T22:37:59.240Z,53.08
2022-12-09T22:40:27.065Z,60.78
2022-12-09T22:42:53.870Z,53.70
2022-12-09T22:45:20.471Z,55.50
2022-12-09T22:47:47.476Z,57.60
2022-12-09T22:50:14.090Z,56.50
2022-12-09T22:52:40.644Z,51.33
2022-12-09T22:55:10.930Z,55.67
2022-12-09T22:57:37.896Z,62.72
2022-12-09T23:00:11.369Z,60.63
2022-12-09T23:02:39.283Z,47.33
2022-12-09T23:05:07.484Z,66.70
2022-12-09T23:07:35.373Z,58.10
2022-12-09T23:10:02.353Z,53.67
2022-12-09T23:12:29.100Z,65.93
2022-12-09T23:14:55.703Z,68.15
2022-12-09T23:17:22.412Z,58.88
2022-12-09T23:19:49.088Z,56.13
2022-12-09T23:22:16.707Z,67.00
2022-12-09T23:24:43.274Z,61.67
2022-12-09T23:27:10.283Z,57.97
2022-12-09T23:29:37.819Z,60.92
2022-12-09T23:32:04.741Z,50.88
2022-12-09T23:34:31.317Z,69.32
2022-12-09T23:36:58.093Z,52.30
2022-12-09T23:39:24.652Z,57.75
2022-12-09T23:41:51.420Z,53.30
2022-12-09T23:44:18.818Z,47.72
2022-12-09T23:46:45.939Z,52.40
2022-12-09T23:49:12.994Z,55.00
2022-12-09T23:51:41.518Z,56.00
2022-12-09T23:54:09.593Z,52.33
2022-12-09T23:56:39.044Z,43.10
2022-12-09T23:59:08.200Z,54.63
